createdAt,value
2018-07-17T00:01:12.890Z,16.51
2018-07-17T00:06:16.027Z,16.47
2018-07-17T00:11:19.225Z,16.35
2018-07-17T00:16:23.289Z,16.27
2018-07-17T00:21:26.416Z,16.19
2018-07-17T00:26:29.544Z,16.18
2018-07-17T00:31:32.684Z,16.15
2018-07-17T00:36:36.453Z,16.15
2018-07-17T00:41:39.708Z,16.15
2018-07-17T00:46:42.900Z,16.10
2018-07-17T00:51:46.080Z,16.07
2018-07-17T00:56:49.187Z,16.04
2018-07-17T01:01:52.389Z,15.97
2018-07-17T01:06:55.503Z,15.88
2018-07-17T01:11:58.665Z,15.80
2018-07-17T01:17:01.978Z,15.68
2018-07-17T01:22:05.537Z,15.62
2018-07-17T01:27:08.827Z,15.55
2018-07-17T01:32:12.614Z,15.57
2018-07-17T01:37:15.941Z,15.51
2018-07-17T01:42:19.264Z,15.50
2018-07-17T01:47:22.408Z,15.49
2018-07-17T01:52:25.616Z,15.57
2018-07-17T01:57:28.736Z,15.48
2018-07-17T02:02:31.876Z,15.35
2018-07-17T02:07:35.102Z,15.28
2018-07-17T02:12:38.384Z,15.32
2018-07-17T02:17:41.585Z,15.25
2018-07-17T02:22:44.827Z,15.23
2018-07-17T02:27:48.035Z,15.51
2018-07-17T02:32:51.162Z,15.48
2018-07-17T02:37:54.288Z,15.59
2018-07-17T02:42:57.382Z,15.51
2018-07-17T02:48:00.516Z,15.38
2018-07-17T02:53:03.608Z,15.23
2018-07-17T02:58:07.034Z,15.12
2018-07-17T03:03:10.384Z,15.04
2018-07-17T03:08:13.582Z,15.03
2018-07-17T03:13:16.864Z,15.04
2018-07-17T03:18:20.858Z,14.99
2018-07-17T03:23:25.489Z,15.00
2018-07-17T03:28:29.422Z,15.04
2018-07-17T03:33:35.181Z,15.10
2018-07-17T03:38:41.170Z,15.17
2018-07-17T03:43:45.806Z,15.27
2018-07-17T03:48:50.023Z,15.35
2018-07-17T03:53:53.840Z,15.54
2018-07-17T03:58:57.090Z,15.77
2018-07-17T04:04:00.249Z,16.06
2018-07-17T04:09:04.281Z,16.36
2018-07-17T04:14:07.580Z,16.76
2018-07-17T04:19:10.911Z,17.22
2018-07-17T04:24:14.033Z,17.49
2018-07-17T04:29:17.255Z,17.78
2018-07-17T04:34:20.399Z,17.87
2018-07-17T04:39:23.535Z,17.95
2018-07-17T04:44:26.645Z,18.04
2018-07-17T04:49:29.759Z,18.16
2018-07-17T04:54:32.927Z,18.16
2018-07-17T04:59:36.051Z,18.20
2018-07-17T05:04:39.268Z,18.41
2018-07-17T05:09:42.401Z,18.57
2018-07-17T05:14:45.791Z,18.73
2018-07-17T05:19:49.070Z,18.87
2018-07-17T05:24:52.297Z,19.12
2018-07-17T05:29:55.480Z,19.76
2018-07-17T05:34:58.692Z,20.32
2018-07-17T05:40:01.815Z,20.44
2018-07-17T05:45:05.061Z,20.78
2018-07-17T05:50:08.284Z,21.50
2018-07-17T05:55:11.428Z,22.61
2018-07-17T06:00:14.665Z,22.67
2018-07-17T06:05:17.918Z,23.00
2018-07-17T06:10:21.107Z,24.55
2018-07-17T06:15:24.190Z,25.02
2018-07-17T06:20:27.558Z,25.42
2018-07-17T06:25:31.118Z,25.93
2018-07-17T06:30:34.256Z,28.07
2018-07-17T06:35:37.517Z,30.30
2018-07-17T06:40:41.288Z,29.34
2018-07-17T06:45:44.538Z,27.74
2018-07-17T06:50:47.818Z,27.04
2018-07-17T06:55:50.918Z,26.71
2018-07-17T07:00:54.101Z,25.64
2018-07-17T07:05:57.276Z,25.43
2018-07-17T07:11:00.395Z,25.00
2018-07-17T07:16:03.555Z,25.52
2018-07-17T07:21:06.701Z,25.81
2018-07-17T07:26:09.819Z,26.69
2018-07-17T07:31:13.128Z,27.46
2018-07-17T07:36:16.340Z,28.73
2018-07-17T07:41:19.486Z,28.19
2018-07-17T07:46:22.677Z,28.59
2018-07-17T07:51:25.839Z,28.14
2018-07-17T07:56:29.006Z,27.47
2018-07-17T08:01:32.150Z,27.18
2018-07-17T08:06:35.318Z,27.15
2018-07-17T08:11:38.546Z,28.59
2018-07-17T08:16:41.725Z,29.58
2018-07-17T08:21:45.062Z,30.78
2018-07-17T08:26:48.243Z,32.19
2018-07-17T08:31:51.476Z,30.77
2018-07-17T08:36:54.622Z,30.04
2018-07-17T08:41:57.900Z,29.45
2018-07-17T08:47:01.108Z,29.56
2018-07-17T08:52:04.259Z,30.94
2018-07-17T08:57:07.420Z,33.10
2018-07-17T09:02:10.538Z,31.97
2018-07-17T09:07:13.769Z,31.72
2018-07-17T09:12:16.997Z,30.78
2018-07-17T09:17:20.140Z,32.14
2018-07-17T09:22:23.272Z,31.72
2018-07-17T09:27:26.481Z,31.21
2018-07-17T09:32:29.641Z,32.26
2018-07-17T09:37:33.071Z,34.52
2018-07-17T09:42:36.206Z,35.10
2018-07-17T09:47:39.957Z,35.69
2018-07-17T09:52:43.180Z,36.06
2018-07-17T09:57:46.408Z,33.60
2018-07-17T10:02:49.660Z,32.07
2018-07-17T10:07:52.817Z,33.22
2018-07-17T10:12:56.004Z,32.28
2018-07-17T10:17:59.245Z,32.57
2018-07-17T10:23:02.467Z,33.38
2018-07-17T10:28:05.642Z,34.34
2018-07-17T10:33:09.068Z,34.13
2018-07-17T10:38:12.415Z,33.07
2018-07-17T10:43:15.617Z,32.86
2018-07-17T10:48:18.760Z,32.69
2018-07-17T10:53:21.907Z,33.62
2018-07-17T10:58:25.048Z,33.80
2018-07-17T11:03:28.235Z,33.13
2018-07-17T11:08:31.479Z,32.38
2018-07-17T11:13:34.638Z,31.52
2018-07-17T11:18:37.757Z,32.06
2018-07-17T11:23:41.164Z,32.46
2018-07-17T11:28:44.486Z,32.10
2018-07-17T11:33:47.788Z,31.87
2018-07-17T11:38:51.134Z,31.93
2018-07-17T11:43:54.949Z,31.00
2018-07-17T11:48:58.391Z,30.66
2018-07-17T11:54:01.974Z,30.73
2018-07-17T11:59:05.295Z,31.58
2018-07-17T12:04:08.378Z,31.08
2018-07-17T12:09:12.012Z,31.60
2018-07-17T12:14:15.318Z,31.05
2018-07-17T12:19:18.619Z,31.23
2018-07-17T12:24:21.836Z,31.63
2018-07-17T12:29:25.060Z,31.39
2018-07-17T12:34:28.223Z,32.13
2018-07-17T12:39:31.350Z,31.89
2018-07-17T12:44:34.514Z,32.06
2018-07-17T12:49:37.680Z,32.00
2018-07-17T12:54:41.345Z,31.95
2018-07-17T12:59:45.825Z,32.52
2018-07-17T13:04:49.905Z,32.78
2018-07-17T13:09:53.039Z,31.37
2018-07-17T13:14:56.232Z,32.00
2018-07-17T13:19:59.403Z,32.67
2018-07-17T13:25:02.756Z,32.77
2018-07-17T13:30:06.006Z,31.72
2018-07-17T13:35:09.128Z,32.71
2018-07-17T13:40:13.102Z,32.82
2018-07-17T13:45:16.466Z,32.74
2018-07-17T13:50:19.843Z,31.76
2018-07-17T13:55:23.262Z,32.64
2018-07-17T14:00:26.595Z,32.33
2018-07-17T14:05:29.783Z,32.02
2018-07-17T14:10:33.032Z,32.17
2018-07-17T14:15:36.163Z,32.42
2018-07-17T14:20:39.354Z,31.95
2018-07-17T14:25:42.655Z,31.94
2018-07-17T14:30:45.823Z,32.52
2018-07-17T14:35:49.513Z,32.42
2018-07-17T14:40:52.700Z,32.31
2018-07-17T14:45:55.866Z,32.51
2018-07-17T14:50:59.539Z,32.93
2018-07-17T14:56:02.700Z,32.91
2018-07-17T15:01:05.921Z,33.05
2018-07-17T15:06:09.079Z,33.07
2018-07-17T15:11:12.352Z,33.19
2018-07-17T15:16:15.548Z,32.80
2018-07-17T15:21:20.043Z,32.74
2018-07-17T15:26:23.195Z,32.62
2018-07-17T15:31:26.390Z,32.23
2018-07-17T15:36:29.661Z,32.25
2018-07-17T15:41:32.892Z,32.48
2018-07-17T15:46:36.138Z,32.26
2018-07-17T15:51:39.426Z,32.31
2018-07-17T15:56:42.929Z,32.02
2018-07-17T16:01:48.270Z,32.14
2018-07-17T16:06:51.386Z,31.74
2018-07-17T16:11:54.550Z,31.38
2018-07-17T16:16:59.940Z,31.40
2018-07-17T16:22:03.458Z,31.27
2018-07-17T16:27:06.696Z,30.87
2018-07-17T16:32:09.851Z,30.84
2018-07-17T16:37:13.047Z,30.95
2018-07-17T16:42:16.265Z,30.89
2018-07-17T16:47:19.990Z,30.54
2018-07-17T16:52:23.155Z,29.37
2018-07-17T16:57:26.261Z,29.01
2018-07-17T17:02:29.486Z,28.47
2018-07-17T17:07:32.809Z,28.17
2018-07-17T17:12:36.004Z,27.92
2018-07-17T17:17:39.165Z,27.80
2018-07-17T17:22:42.312Z,27.34
2018-07-17T17:27:45.688Z,27.01
2018-07-17T17:32:49.011Z,26.79
2018-07-17T17:37:52.711Z,26.74
2018-07-17T17:42:55.842Z,26.53
2018-07-17T17:47:59.047Z,26.28
2018-07-17T17:53:02.257Z,26.15
2018-07-17T17:58:05.428Z,25.87
2018-07-17T18:03:08.625Z,25.77
2018-07-17T18:08:12.155Z,25.78
2018-07-17T18:13:16.538Z,25.55
2018-07-17T18:18:19.963Z,25.39
2018-07-17T18:23:23.338Z,25.19
2018-07-17T18:28:26.644Z,25.10
2018-07-17T18:33:30.817Z,25.09
2018-07-17T18:38:34.627Z,25.04
2018-07-17T18:43:37.809Z,24.86
2018-07-17T18:48:51.813Z,24.56
2018-07-17T18:53:57.139Z,24.48
2018-07-17T18:59:00.284Z,24.32
2018-07-17T19:04:03.638Z,24.10
2018-07-17T19:09:09.328Z,23.98
2018-07-17T19:14:13.553Z,23.89
2018-07-17T19:19:20.699Z,23.75
2018-07-17T19:24:26.600Z,23.51
2018-07-17T19:29:34.302Z,23.33
2018-07-17T19:34:40.718Z,23.24
2018-07-17T19:39:47.494Z,22.90
2018-07-17T19:44:51.019Z,22.85
2018-07-17T19:49:54.727Z,22.73
2018-07-17T19:54:58.248Z,22.58
2018-07-17T20:00:01.592Z,22.54
2018-07-17T20:05:04.849Z,22.42
2018-07-17T20:10:09.011Z,22.29
2018-07-17T20:15:12.184Z,22.08
2018-07-17T20:20:15.513Z,21.96
2018-07-17T20:25:18.777Z,21.84
2018-07-17T20:30:28.631Z,21.73
2018-07-17T20:35:31.815Z,21.78
2018-07-17T20:40:35.717Z,21.63
2018-07-17T20:45:38.873Z,21.37
2018-07-17T20:50:42.057Z,21.17
2018-07-17T20:55:45.216Z,21.05
2018-07-17T21:00:48.548Z,20.99
2018-07-17T21:05:52.268Z,20.95
2018-07-17T21:10:55.639Z,20.81
2018-07-17T21:15:59.371Z,20.67
2018-07-17T21:21:02.543Z,20.53
2018-07-17T21:26:05.617Z,20.54
2018-07-17T21:31:08.693Z,20.44
2018-07-17T21:36:11.849Z,20.38
2018-07-17T21:41:14.980Z,20.41
2018-07-17T21:46:18.189Z,20.26
2018-07-17T21:51:21.440Z,20.10
2018-07-17T21:56:24.956Z,20.03
2018-07-17T22:01:28.120Z,20.05
2018-07-17T22:06:31.239Z,20.06
2018-07-17T22:11:34.311Z,19.99
2018-07-17T22:16:37.769Z,19.93
2018-07-17T22:21:40.897Z,19.68
2018-07-17T22:26:44.112Z,19.50
2018-07-17T22:31:47.295Z,19.28
2018-07-17T22:36:50.662Z,19.17
2018-07-17T22:41:53.840Z,19.15
2018-07-17T22:46:57.311Z,19.27
2018-07-17T22:52:00.844Z,19.40
2018-07-17T22:57:04.036Z,19.33
2018-07-17T23:02:09.361Z,19.22
2018-07-17T23:07:13.399Z,19.15
2018-07-17T23:12:17.240Z,19.12
2018-07-17T23:17:20.420Z,19.00
2018-07-17T23:22:40.335Z,18.96
2018-07-17T23:27:43.452Z,18.83
2018-07-17T23:32:46.588Z,18.70
2018-07-17T23:37:49.776Z,18.70
2018-07-17T23:42:53.084Z,18.70
2018-07-17T23:47:56.204Z,18.62
2018-07-17T23:52:59.390Z,18.56
2018-07-17T23:58:02.609Z,18.46
